createdAt,value
2023-12-21T00:01:37.755Z,17.41
2023-12-21T00:04:07.984Z,17.56
2023-12-21T00:06:36.672Z,17.88
2023-12-21T00:09:07.805Z,17.46
2023-12-21T00:11:36.574Z,17.41
2023-12-21T00:14:05.048Z,17.69
2023-12-21T00:16:33.871Z,17.27
2023-12-21T00:19:03.777Z,17.29
2023-12-21T00:21:32.580Z,17.47
2023-12-21T00:24:00.964Z,17.59
2023-12-21T00:26:30.047Z,17.45
2023-12-21T00:28:58.353Z,17.32
2023-12-21T00:31:27.102Z,17.59
2023-12-21T00:33:55.478Z,18.01
2023-12-21T00:36:25.720Z,17.79
2023-12-21T00:38:54.038Z,18.04
2023-12-21T00:41:22.712Z,18.11
2023-12-21T00:43:51.154Z,17.76
2023-12-21T00:46:19.874Z,17.87
2023-12-21T00:48:48.370Z,17.71
2023-12-21T00:51:16.927Z,18.24
2023-12-21T00:53:46.823Z,17.62
2023-12-21T00:56:15.591Z,18.00
2023-12-21T00:58:43.946Z,18.07
2023-12-21T01:01:13.291Z,18.22
2023-12-21T01:03:41.792Z,18.07
2023-12-21T01:06:12.611Z,17.81
2023-12-21T01:08:41.075Z,17.77
2023-12-21T01:11:12.109Z,17.60
2023-12-21T01:13:40.309Z,17.63
2023-12-21T01:16:09.091Z,17.64
2023-12-21T01:18:38.733Z,17.83
2023-12-21T01:21:07.361Z,17.60
2023-12-21T01:23:35.688Z,17.52
2023-12-21T01:26:04.564Z,17.88
2023-12-21T01:28:34.389Z,17.47
2023-12-21T01:31:03.220Z,17.96
2023-12-21T01:33:31.736Z,17.53
2023-12-21T01:36:00.642Z,17.72
2023-12-21T01:38:28.925Z,17.92
2023-12-21T01:40:57.488Z,17.78
2023-12-21T01:43:25.946Z,17.73
2023-12-21T01:45:56.284Z,17.57
2023-12-21T01:48:24.833Z,17.75
2023-12-21T01:50:53.537Z,17.91
2023-12-21T01:53:21.832Z,17.97
2023-12-21T01:55:50.630Z,17.59
2023-12-21T01:58:19.542Z,17.69
2023-12-21T02:00:48.184Z,17.70
2023-12-21T02:03:17.995Z,17.47
2023-12-21T02:05:46.745Z,17.82
2023-12-21T02:08:15.059Z,17.97
2023-12-21T02:10:47.081Z,17.87
2023-12-21T02:13:17.657Z,17.67
2023-12-21T02:15:46.214Z,18.35
2023-12-21T02:18:14.527Z,17.90
2023-12-21T02:20:45.038Z,17.46
2023-12-21T02:23:14.378Z,17.78
2023-12-21T02:25:44.449Z,17.63
2023-12-21T02:28:12.846Z,17.75
2023-12-21T02:30:41.623Z,18.22
2023-12-21T02:33:09.932Z,17.88
2023-12-21T02:35:38.924Z,18.21
2023-12-21T02:38:07.965Z,18.06
2023-12-21T02:40:36.955Z,17.86
2023-12-21T02:43:06.935Z,17.78
2023-12-21T02:45:35.493Z,17.96
2023-12-21T02:48:03.786Z,17.94
2023-12-21T02:50:32.523Z,17.81
2023-12-21T02:53:00.756Z,18.08
2023-12-21T02:55:29.481Z,18.11
2023-12-21T02:57:58.513Z,18.17
2023-12-21T03:00:28.582Z,17.82
2023-12-21T03:02:57.262Z,18.06
2023-12-21T03:05:25.941Z,18.05
2023-12-21T03:07:55.417Z,18.10
2023-12-21T03:10:23.968Z,17.89
2023-12-21T03:12:52.539Z,18.01
2023-12-21T03:15:21.111Z,18.00
2023-12-21T03:17:50.819Z,18.21
2023-12-21T03:20:19.632Z,18.26
2023-12-21T03:22:48.185Z,18.37
2023-12-21T03:25:17.341Z,18.14
2023-12-21T03:27:45.521Z,18.02
2023-12-21T03:30:14.710Z,18.03
2023-12-21T03:32:44.330Z,18.35
2023-12-21T03:35:14.654Z,17.76
2023-12-21T03:37:42.902Z,18.43
2023-12-21T03:40:12.369Z,18.11
2023-12-21T03:42:40.675Z,18.32
2023-12-21T03:45:10.352Z,18.04
2023-12-21T03:47:38.686Z,17.95
2023-12-21T03:50:08.302Z,17.97
2023-12-21T03:52:38.176Z,18.11
2023-12-21T03:55:07.886Z,18.27
2023-12-21T03:57:36.152Z,18.20
2023-12-21T04:00:05.260Z,18.34
2023-12-21T04:02:36.173Z,18.14
2023-12-21T04:05:05.042Z,18.08
2023-12-21T04:07:33.618Z,18.16
2023-12-21T04:10:03.714Z,18.08
2023-12-21T04:12:34.854Z,18.26
2023-12-21T04:15:03.506Z,18.38
2023-12-21T04:17:32.115Z,17.94
2023-12-21T04:20:00.754Z,18.39
2023-12-21T04:22:29.050Z,17.84
2023-12-21T04:24:57.689Z,18.03
2023-12-21T04:27:29.864Z,17.66
2023-12-21T04:29:58.514Z,18.22
2023-12-21T04:32:26.964Z,18.18
2023-12-21T04:34:55.677Z,17.81
2023-12-21T04:37:25.461Z,18.18
2023-12-21T04:39:53.978Z,18.17
2023-12-21T04:42:22.150Z,18.31
2023-12-21T04:44:52.100Z,17.68
2023-12-21T04:47:24.137Z,17.97
2023-12-21T04:49:53.428Z,17.83
2023-12-21T04:52:22.201Z,17.85
2023-12-21T04:54:50.789Z,18.00
2023-12-21T04:57:21.237Z,17.65
2023-12-21T04:59:51.910Z,17.70
2023-12-21T05:02:20.201Z,17.63
2023-12-21T05:04:49.143Z,17.79
2023-12-21T05:07:17.712Z,18.18
2023-12-21T05:09:46.351Z,18.47
2023-12-21T05:12:14.811Z,17.77
2023-12-21T05:14:43.559Z,18.35
2023-12-21T05:17:13.153Z,18.36
2023-12-21T05:19:43.847Z,18.70
2023-12-21T05:22:12.173Z,18.07
2023-12-21T05:24:41.184Z,18.52
2023-12-21T05:27:09.651Z,18.42
2023-12-21T05:29:38.379Z,18.57
2023-12-21T05:32:07.460Z,18.96
2023-12-21T05:34:41.184Z,18.15
2023-12-21T05:37:11.312Z,18.65
2023-12-21T05:39:40.589Z,18.77
2023-12-21T05:42:08.799Z,18.56
2023-12-21T05:44:37.503Z,18.34
2023-12-21T05:47:06.010Z,18.62
2023-12-21T05:49:34.754Z,18.52
2023-12-21T05:52:04.520Z,18.13
2023-12-21T05:54:33.221Z,18.08
2023-12-21T05:57:03.379Z,18.37
2023-12-21T05:59:31.905Z,18.30
2023-12-21T06:02:00.706Z,18.15
2023-12-21T06:04:29.371Z,18.12
2023-12-21T06:06:57.965Z,18.68
2023-12-21T06:09:28.528Z,18.19
2023-12-21T06:11:57.002Z,18.34
2023-12-21T06:14:25.546Z,18.98
2023-12-21T06:16:54.099Z,19.04
2023-12-21T06:19:22.743Z,19.57
2023-12-21T06:21:51.197Z,19.12
2023-12-21T06:24:19.719Z,20.09
2023-12-21T06:26:49.577Z,19.40
2023-12-21T06:29:18.369Z,19.19
2023-12-21T06:31:47.213Z,19.55
2023-12-21T06:34:20.889Z,19.15
2023-12-21T06:36:49.797Z,19.38
2023-12-21T06:39:19.857Z,19.51
2023-12-21T06:41:49.888Z,18.94
2023-12-21T06:44:19.168Z,19.24
2023-12-21T06:46:48.825Z,19.40
2023-12-21T06:49:18.206Z,19.39
2023-12-21T06:51:47.106Z,19.45
2023-12-21T06:54:16.736Z,19.16
2023-12-21T06:56:45.046Z,19.37
2023-12-21T06:59:15.292Z,19.17
2023-12-21T07:01:43.699Z,19.48
2023-12-21T07:04:13.127Z,19.44
2023-12-21T07:06:41.478Z,19.77
2023-12-21T07:09:10.610Z,20.08
2023-12-21T07:11:38.765Z,19.78
2023-12-21T07:14:07.274Z,20.06
2023-12-21T07:16:37.382Z,19.63
2023-12-21T07:19:07.633Z,20.20
2023-12-21T07:21:36.015Z,20.21
2023-12-21T07:24:04.797Z,20.36
2023-12-21T07:26:33.996Z,20.78
2023-12-21T07:29:03.270Z,20.08
2023-12-21T07:31:31.577Z,20.04
2023-12-21T07:34:02.167Z,19.91
2023-12-21T07:36:30.512Z,20.17
2023-12-21T07:38:59.306Z,20.26
2023-12-21T07:41:27.579Z,20.19
2023-12-21T07:43:56.643Z,20.19
2023-12-21T07:46:25.366Z,20.23
2023-12-21T07:48:54.339Z,19.72
2023-12-21T07:51:24.113Z,20.13
2023-12-21T07:53:55.606Z,20.34
2023-12-21T07:56:24.084Z,19.81
2023-12-21T07:58:52.724Z,19.58
2023-12-21T08:01:21.377Z,19.84
2023-12-21T08:03:50.209Z,19.99
2023-12-21T08:06:24.676Z,19.11
2023-12-21T08:08:57.949Z,19.73
2023-12-21T08:11:30.177Z,19.96
2023-12-21T08:13:59.797Z,20.26
2023-12-21T08:16:28.241Z,19.85
2023-12-21T08:18:57.484Z,20.21
2023-12-21T08:21:28.415Z,19.69
2023-12-21T08:23:59.357Z,19.81
2023-12-21T08:26:27.732Z,19.89
2023-12-21T08:28:56.593Z,19.41
2023-12-21T08:31:28.833Z,19.21
2023-12-21T08:33:57.743Z,19.09
2023-12-21T08:36:27.392Z,18.99
2023-12-21T08:38:56.188Z,18.87
2023-12-21T08:41:26.221Z,18.68
2023-12-21T08:43:56.303Z,18.79
2023-12-21T08:46:25.444Z,19.04
2023-12-21T08:48:54.537Z,18.90
2023-12-21T08:51:23.697Z,18.43
2023-12-21T08:53:53.678Z,18.29
2023-12-21T08:56:22.524Z,18.96
2023-12-21T08:58:53.968Z,18.21
2023-12-21T09:01:22.738Z,17.50
2023-12-21T09:03:51.665Z,17.25
2023-12-21T09:06:20.066Z,16.44
2023-12-21T09:08:49.471Z,16.54
2023-12-21T09:11:20.345Z,15.91
2023-12-21T09:13:48.911Z,16.94
2023-12-21T09:16:18.704Z,16.90
2023-12-21T09:18:47.459Z,17.51
2023-12-21T09:21:15.993Z,16.99
2023-12-21T09:23:44.602Z,17.36
2023-12-21T09:26:13.501Z,17.01
2023-12-21T09:28:43.686Z,17.15
2023-12-21T09:31:12.247Z,16.51
2023-12-21T09:33:41.585Z,16.29
2023-12-21T09:36:10.843Z,16.39
2023-12-21T09:38:39.522Z,16.41
2023-12-21T09:41:08.598Z,16.06
2023-12-21T09:43:40.537Z,15.22
2023-12-21T09:46:10.679Z,14.99
2023-12-21T09:48:40.464Z,15.01
2023-12-21T09:51:10.349Z,15.01
2023-12-21T09:53:39.696Z,15.46
2023-12-21T09:56:09.273Z,15.25
2023-12-21T09:58:37.786Z,14.61
2023-12-21T10:01:06.368Z,14.50
2023-12-21T10:03:36.573Z,14.85
2023-12-21T10:06:05.722Z,15.58
2023-12-21T10:08:35.034Z,15.60
2023-12-21T10:11:07.371Z,15.51
2023-12-21T10:13:36.662Z,16.53
2023-12-21T10:16:05.791Z,16.50
2023-12-21T10:18:36.304Z,16.86
2023-12-21T10:21:06.367Z,16.32
2023-12-21T10:23:34.974Z,16.66
2023-12-21T10:26:03.369Z,17.00
2023-12-21T10:28:32.022Z,16.66
2023-12-21T10:31:02.374Z,16.58
2023-12-21T10:33:32.385Z,16.99
2023-12-21T10:36:00.956Z,16.50
2023-12-21T10:38:32.142Z,15.84
2023-12-21T10:41:07.075Z,16.74
2023-12-21T10:43:37.100Z,16.41
2023-12-21T10:46:05.962Z,16.32
2023-12-21T10:48:35.339Z,16.26
2023-12-21T10:51:04.015Z,16.64
2023-12-21T10:53:35.189Z,16.09
2023-12-21T10:56:04.378Z,16.83
2023-12-21T10:58:33.381Z,16.55
2023-12-21T11:01:03.724Z,16.82
2023-12-21T11:03:32.542Z,16.83
2023-12-21T11:06:02.175Z,16.69
2023-12-21T11:08:31.632Z,17.32
2023-12-21T11:11:01.310Z,16.97
2023-12-21T11:13:30.032Z,16.97
2023-12-21T11:15:59.420Z,17.18
2023-12-21T11:18:28.419Z,17.29
2023-12-21T11:21:00.136Z,16.90
2023-12-21T11:23:29.109Z,17.22
2023-12-21T11:25:58.413Z,17.12
2023-12-21T11:28:32.078Z,16.61
2023-12-21T11:31:00.708Z,17.71
2023-12-21T11:33:31.404Z,17.58
2023-12-21T11:36:00.220Z,17.98
2023-12-21T11:38:43.694Z,17.27
2023-12-21T11:41:11.975Z,17.59
2023-12-21T11:43:43.240Z,17.84
2023-12-21T11:46:11.673Z,17.77
2023-12-21T11:48:40.681Z,18.25
2023-12-21T11:51:08.899Z,18.17
2023-12-21T11:53:46.417Z,17.76
2023-12-21T11:56:16.004Z,17.81
2023-12-21T11:58:50.701Z,17.24
2023-12-21T12:01:27.540Z,17.68
2023-12-21T12:03:56.489Z,18.28
2023-12-21T12:06:27.175Z,18.33
2023-12-21T12:08:55.856Z,18.29
2023-12-21T12:11:24.388Z,18.69
2023-12-21T12:13:54.549Z,17.84
2023-12-21T12:16:22.904Z,18.02
2023-12-21T12:18:51.967Z,18.33
2023-12-21T12:21:20.984Z,17.86
2023-12-21T12:23:49.746Z,18.63
2023-12-21T12:26:18.632Z,18.33
2023-12-21T12:28:50.822Z,17.32
2023-12-21T12:31:21.111Z,18.00
2023-12-21T12:33:50.160Z,17.93
2023-12-21T12:36:20.593Z,17.75
2023-12-21T12:38:51.013Z,18.27
2023-12-21T12:41:23.185Z,17.74
2023-12-21T12:43:53.221Z,18.17
2023-12-21T12:46:23.276Z,18.28
2023-12-21T12:48:52.885Z,18.50
2023-12-21T12:51:23.502Z,18.60
2023-12-21T12:53:53.477Z,18.20
2023-12-21T12:56:22.177Z,18.71
2023-12-21T12:58:58.325Z,18.33
2023-12-21T13:01:30.656Z,18.40
2023-12-21T13:04:00.382Z,17.20
2023-12-21T13:06:30.220Z,19.19
2023-12-21T13:08:59.417Z,19.17
2023-12-21T13:11:28.609Z,18.96
2023-12-21T13:13:57.827Z,18.30
2023-12-21T13:16:26.327Z,18.66
2023-12-21T13:18:58.243Z,18.74
2023-12-21T13:21:26.793Z,18.97
2023-12-21T13:23:55.344Z,18.52
2023-12-21T13:26:23.674Z,18.55
2023-12-21T13:28:56.119Z,19.43
2023-12-21T13:31:25.956Z,19.42
2023-12-21T13:33:56.246Z,19.37
2023-12-21T13:36:25.868Z,18.75
2023-12-21T13:38:55.921Z,18.88
2023-12-21T13:41:24.906Z,19.24
2023-12-21T13:43:54.035Z,19.45
2023-12-21T13:46:23.540Z,19.68
2023-12-21T13:48:53.181Z,18.77
2023-12-21T13:51:23.290Z,18.89
2023-12-21T13:53:52.473Z,19.28
2023-12-21T13:56:21.485Z,19.31
2023-12-21T13:58:50.579Z,18.80
2023-12-21T14:01:24.003Z,19.10
2023-12-21T14:03:52.810Z,18.86
2023-12-21T14:06:22.833Z,18.80
2023-12-21T14:08:51.703Z,19.22
2023-12-21T14:11:20.233Z,19.43
2023-12-21T14:13:48.860Z,19.33
2023-12-21T14:16:17.325Z,19.87
2023-12-21T14:18:46.098Z,19.24
2023-12-21T14:21:15.516Z,19.75
2023-12-21T14:23:45.831Z,19.87
2023-12-21T14:26:15.068Z,19.73
2023-12-21T14:28:51.157Z,19.33
2023-12-21T14:31:25.032Z,19.52
2023-12-21T14:33:53.775Z,19.31
2023-12-21T14:36:22.136Z,19.34
2023-12-21T14:38:54.259Z,19.26
2023-12-21T14:41:22.908Z,19.10
2023-12-21T14:43:52.025Z,18.97
2023-12-21T14:46:20.533Z,19.61
2023-12-21T14:48:49.264Z,19.68
2023-12-21T14:51:19.488Z,19.85
2023-12-21T14:53:48.161Z,19.53
2023-12-21T14:56:17.814Z,19.15
2023-12-21T14:58:46.695Z,18.82
2023-12-21T15:01:14.982Z,18.97
2023-12-21T15:03:43.813Z,19.16
2023-12-21T15:06:14.163Z,19.06
2023-12-21T15:08:42.888Z,19.17
2023-12-21T15:11:11.433Z,19.00
2023-12-21T15:13:43.024Z,19.16
2023-12-21T15:16:12.028Z,19.29
2023-12-21T15:18:41.278Z,19.68
2023-12-21T15:21:10.000Z,19.28
2023-12-21T15:23:38.836Z,19.06
2023-12-21T15:26:06.987Z,19.13
2023-12-21T15:28:36.024Z,19.08
2023-12-21T15:31:07.176Z,18.88
2023-12-21T15:33:36.057Z,18.63
2023-12-21T15:36:04.645Z,18.81
2023-12-21T15:38:33.439Z,19.01
2023-12-21T15:41:01.899Z,18.82
2023-12-21T15:43:31.896Z,18.72
2023-12-21T15:46:00.369Z,18.92
2023-12-21T15:48:30.417Z,19.14
2023-12-21T15:50:58.928Z,19.26
2023-12-21T15:53:28.087Z,18.89
2023-12-21T15:55:56.716Z,19.00
2023-12-21T15:58:25.759Z,18.61
2023-12-21T16:00:54.167Z,18.91
2023-12-21T16:03:23.676Z,18.81
2023-12-21T16:05:53.706Z,18.50
2023-12-21T16:08:22.260Z,19.60
2023-12-21T16:10:50.902Z,19.06
2023-12-21T16:13:21.206Z,18.77
2023-12-21T16:15:51.246Z,19.10
2023-12-21T16:18:21.827Z,18.84
2023-12-21T16:20:51.813Z,19.18
2023-12-21T16:23:21.872Z,18.17
2023-12-21T16:25:50.381Z,18.69
2023-12-21T16:28:19.220Z,18.64
2023-12-21T16:30:48.575Z,18.84
2023-12-21T16:33:19.848Z,18.56
2023-12-21T16:35:48.792Z,18.73
2023-12-21T16:38:18.652Z,18.69
2023-12-21T16:40:48.716Z,17.99
2023-12-21T16:43:17.499Z,18.96
2023-12-21T16:45:46.025Z,18.58
2023-12-21T16:48:14.824Z,19.16
2023-12-21T16:50:50.555Z,18.66
2023-12-21T16:53:19.313Z,18.52
2023-12-21T16:55:49.303Z,18.17
2023-12-21T16:58:18.484Z,18.25
2023-12-21T17:00:47.090Z,18.16
2023-12-21T17:03:15.705Z,18.90
2023-12-21T17:05:44.196Z,18.06
2023-12-21T17:08:12.852Z,18.12
2023-12-21T17:10:42.374Z,18.45
2023-12-21T17:13:12.469Z,17.78
2023-12-21T17:15:44.138Z,18.35
2023-12-21T17:18:13.018Z,18.70
2023-12-21T17:20:41.578Z,18.79
2023-12-21T17:23:13.025Z,18.40
2023-12-21T17:25:42.856Z,19.07
2023-12-21T17:28:13.123Z,18.25
2023-12-21T17:30:41.597Z,18.92
2023-12-21T17:33:11.169Z,18.38
2023-12-21T17:35:39.818Z,18.34
2023-12-21T17:38:08.584Z,18.58
2023-12-21T17:40:37.167Z,19.21
2023-12-21T17:43:06.137Z,19.15
2023-12-21T17:45:35.776Z,18.66
2023-12-21T17:48:05.925Z,18.46
2023-12-21T17:50:34.847Z,18.98
2023-12-21T17:53:03.516Z,19.17
2023-12-21T17:55:32.065Z,19.69
2023-12-21T17:58:00.906Z,19.13
2023-12-21T18:00:30.172Z,19.40
2023-12-21T18:03:02.314Z,19.10
2023-12-21T18:05:30.882Z,19.09
2023-12-21T18:07:59.883Z,19.64
2023-12-21T18:10:28.225Z,19.53
2023-12-21T18:12:57.778Z,19.62
2023-12-21T18:15:26.110Z,20.09
2023-12-21T18:17:55.104Z,20.00
2023-12-21T18:20:25.184Z,19.17
2023-12-21T18:22:53.937Z,19.64
2023-12-21T18:25:22.331Z,19.21
2023-12-21T18:27:51.253Z,19.32
2023-12-21T18:30:19.813Z,19.22
2023-12-21T18:32:48.681Z,19.06
2023-12-21T18:35:17.145Z,19.17
2023-12-21T18:37:47.552Z,19.12
2023-12-21T18:40:16.584Z,19.16
2023-12-21T18:42:45.626Z,19.17
2023-12-21T18:45:15.245Z,19.34
2023-12-21T18:47:44.341Z,19.33
2023-12-21T18:50:13.472Z,19.07
2023-12-21T18:52:42.396Z,19.48
2023-12-21T18:55:12.493Z,18.62
2023-12-21T18:57:41.813Z,19.38
2023-12-21T19:00:11.628Z,19.11
2023-12-21T19:02:40.572Z,18.80
2023-12-21T19:05:09.697Z,18.91
2023-12-21T19:07:39.458Z,18.64
2023-12-21T19:10:10.398Z,19.38
2023-12-21T19:12:43.253Z,18.78
2023-12-21T19:15:11.855Z,19.79
2023-12-21T19:17:41.098Z,19.25
2023-12-21T19:20:09.869Z,18.91
2023-12-21T19:22:38.961Z,18.65
2023-12-21T19:25:08.791Z,18.65
2023-12-21T19:27:39.262Z,19.06
2023-12-21T19:30:10.190Z,18.16
2023-12-21T19:32:38.785Z,17.55
2023-12-21T19:35:07.541Z,19.18
2023-12-21T19:37:36.171Z,18.51
2023-12-21T19:40:04.980Z,18.87
2023-12-21T19:42:33.666Z,19.08
2023-12-21T19:45:03.170Z,18.54
2023-12-21T19:47:33.286Z,18.24
2023-12-21T19:50:04.378Z,18.51
2023-12-21T19:52:33.291Z,18.18
2023-12-21T19:55:01.618Z,18.13
2023-12-21T19:57:30.800Z,18.10
2023-12-21T19:59:59.277Z,17.93
2023-12-21T20:02:27.926Z,18.20
2023-12-21T20:04:58.045Z,17.87
2023-12-21T20:07:27.565Z,18.34
2023-12-21T20:09:56.228Z,19.02
2023-12-21T20:12:25.390Z,18.27
2023-12-21T20:14:53.812Z,18.31
2023-12-21T20:17:22.832Z,18.43
2023-12-21T20:19:51.354Z,18.91
2023-12-21T20:22:21.554Z,18.97
2023-12-21T20:24:50.082Z,19.49
2023-12-21T20:27:19.120Z,19.41
2023-12-21T20:29:47.458Z,20.46
2023-12-21T20:32:16.115Z,20.02
2023-12-21T20:34:45.157Z,20.02
2023-12-21T20:37:14.182Z,20.00
2023-12-21T20:39:44.090Z,19.72
2023-12-21T20:42:12.781Z,20.06
2023-12-21T20:44:43.607Z,19.67
2023-12-21T20:47:12.465Z,19.90
2023-12-21T20:49:43.594Z,19.57
2023-12-21T20:52:13.531Z,18.41
2023-12-21T20:54:43.529Z,19.33
2023-12-21T20:57:13.680Z,19.99
2023-12-21T20:59:42.834Z,20.18
2023-12-21T21:02:11.793Z,20.40
2023-12-21T21:04:40.255Z,20.18
2023-12-21T21:07:09.286Z,19.99
2023-12-21T21:09:37.747Z,20.05
2023-12-21T21:12:11.374Z,19.52
2023-12-21T21:14:39.958Z,19.91
2023-12-21T21:17:08.466Z,20.24
2023-12-21T21:19:38.244Z,20.04
2023-12-21T21:22:07.016Z,19.64
2023-12-21T21:24:35.260Z,19.72
2023-12-21T21:27:04.225Z,19.61
2023-12-21T21:29:35.527Z,19.09
2023-12-21T21:32:04.325Z,19.12
2023-12-21T21:34:32.599Z,19.34
2023-12-21T21:37:01.243Z,19.35
2023-12-21T21:39:29.589Z,19.66
2023-12-21T21:41:58.537Z,19.72
2023-12-21T21:44:30.965Z,19.25
2023-12-21T21:47:01.165Z,19.01
2023-12-21T21:49:29.744Z,19.24
2023-12-21T21:51:58.475Z,18.87
2023-12-21T21:54:28.262Z,19.19
2023-12-21T21:56:57.967Z,18.98
2023-12-21T21:59:26.285Z,18.98
2023-12-21T22:01:55.054Z,18.65
2023-12-21T22:04:25.251Z,18.58
2023-12-21T22:06:54.076Z,18.82
2023-12-21T22:09:22.602Z,18.63
2023-12-21T22:11:51.498Z,18.46
2023-12-21T22:14:20.144Z,18.04
2023-12-21T22:16:51.402Z,18.22
2023-12-21T22:19:20.021Z,16.44
2023-12-21T22:21:50.026Z,17.33
2023-12-21T22:24:19.317Z,17.39
2023-12-21T22:26:47.961Z,17.87
2023-12-21T22:29:16.464Z,17.35
2023-12-21T22:31:45.122Z,17.58
2023-12-21T22:34:13.633Z,17.64
2023-12-21T22:36:42.397Z,17.68
2023-12-21T22:39:12.251Z,17.34
2023-12-21T22:41:40.982Z,17.76
2023-12-21T22:44:10.037Z,17.62
2023-12-21T22:46:39.002Z,17.67
2023-12-21T22:49:07.511Z,18.15
2023-12-21T22:51:36.268Z,17.84
2023-12-21T22:54:05.620Z,18.04
2023-12-21T22:56:35.693Z,17.65
2023-12-21T22:59:04.151Z,17.66
2023-12-21T23:01:32.974Z,17.71
2023-12-21T23:04:02.218Z,18.01
2023-12-21T23:06:30.992Z,17.44
2023-12-21T23:08:59.994Z,17.65
2023-12-21T23:11:31.679Z,17.47
2023-12-21T23:14:01.673Z,16.86
2023-12-21T23:16:33.567Z,17.34
2023-12-21T23:19:03.367Z,17.47
2023-12-21T23:21:32.077Z,16.84
2023-12-21T23:24:00.667Z,17.13
2023-12-21T23:26:29.157Z,16.92
2023-12-21T23:28:57.664Z,16.94
2023-12-21T23:31:30.517Z,16.74
2023-12-21T23:33:59.293Z,16.79
2023-12-21T23:36:28.375Z,16.70
2023-12-21T23:38:57.097Z,16.48
2023-12-21T23:41:25.923Z,16.61
2023-12-21T23:43:54.567Z,16.77
2023-12-21T23:46:23.435Z,16.46
2023-12-21T23:48:53.073Z,16.50
2023-12-21T23:51:22.068Z,16.71
2023-12-21T23:53:50.361Z,16.60
2023-12-21T23:56:19.225Z,16.62
2023-12-21T23:58:47.559Z,16.43
